createdAt,value
2018-12-01T05:00:56.736Z,98.21
2018-12-01T05:01:56.607Z,98.07
2018-12-01T05:03:49.265Z,98.26
2018-12-01T05:04:49.151Z,97.78
2018-12-01T05:06:41.831Z,98.07
2018-12-01T05:07:41.706Z,97.88
2018-12-01T05:09:34.382Z,97.78
2018-12-01T05:10:34.253Z,97.88
2018-12-01T05:12:26.914Z,97.69
2018-12-01T05:13:26.803Z,97.88
2018-12-01T05:15:19.485Z,97.97
2018-12-01T05:16:19.357Z,97.60
2018-12-01T05:18:12.012Z,97.74
2018-12-01T05:19:11.901Z,97.92
2018-12-01T05:21:04.578Z,98.26
2018-12-01T05:22:04.454Z,98.12
2018-12-01T05:23:57.112Z,98.02
2018-12-01T05:24:56.999Z,97.92
2018-12-01T05:26:49.679Z,98.21
2018-12-01T05:27:49.547Z,98.21
2018-12-01T05:29:42.219Z,98.36
2018-12-01T05:30:42.093Z,98.36
2018-12-01T05:32:34.750Z,98.26
2018-12-01T05:33:34.642Z,98.12
2018-12-01T05:35:27.314Z,98.21
2018-12-01T05:36:27.189Z,98.36
2018-12-01T05:38:19.846Z,98.07
2018-12-01T05:39:19.763Z,98.26
2018-12-01T05:41:12.409Z,98.17
2018-12-01T05:42:12.284Z,97.97
2018-12-01T05:44:04.980Z,97.97
2018-12-01T05:45:04.828Z,97.69
2018-12-01T05:46:57.507Z,98.07
2018-12-01T05:47:57.370Z,97.69
2018-12-01T05:49:50.048Z,98.26
2018-12-01T05:50:49.924Z,97.88
2018-12-01T05:52:42.580Z,97.69
2018-12-01T05:53:42.470Z,97.60
2018-12-01T05:55:35.152Z,97.97
2018-12-01T05:56:35.015Z,97.97
2018-12-01T05:58:27.675Z,97.88
2018-12-01T05:59:27.567Z,98.17
2018-12-01T06:01:20.239Z,98.07
2018-12-01T06:02:20.117Z,98.07
2018-12-01T06:04:12.769Z,97.31
2018-12-01T06:05:12.664Z,97.60
2018-12-01T06:07:05.335Z,97.22
2018-12-01T06:08:05.205Z,97.22
2018-12-01T06:09:57.894Z,97.60
2018-12-01T06:10:57.756Z,97.60
2018-12-01T06:12:50.418Z,97.60
2018-12-01T06:13:50.303Z,97.60
2018-12-01T06:15:42.984Z,97.22
2018-12-01T06:16:42.856Z,97.12
2018-12-01T06:18:35.514Z,97.69
2018-12-01T06:19:35.407Z,96.93
2018-12-01T06:21:28.094Z,96.93
2018-12-01T06:22:27.963Z,96.93
2018-12-01T06:24:20.626Z,96.93
2018-12-01T06:25:20.511Z,97.31
2018-12-01T06:27:13.208Z,97.12
2018-12-01T06:28:13.061Z,97.03
2018-12-01T06:30:05.721Z,97.03
2018-12-01T06:31:05.612Z,96.93
2018-12-01T06:32:58.294Z,97.22
2018-12-01T06:33:58.161Z,97.03
2018-12-01T06:35:50.842Z,97.12
2018-12-01T06:36:50.710Z,97.22
2018-12-01T06:38:43.372Z,97.12
2018-12-01T06:39:43.257Z,97.31
2018-12-01T06:41:35.938Z,97.41
2018-12-01T06:42:35.812Z,97.22
2018-12-01T06:44:28.469Z,97.22
2018-12-01T06:45:28.356Z,97.50
2018-12-01T06:47:21.037Z,97.03
2018-12-01T06:48:20.907Z,97.31
2018-12-01T06:50:13.571Z,97.31
2018-12-01T06:51:13.455Z,97.60
2018-12-01T06:53:06.130Z,97.41
2018-12-01T06:54:06.005Z,96.93
2018-12-01T06:55:58.698Z,97.31
2018-12-01T06:56:58.549Z,97.41
2018-12-01T06:58:51.206Z,97.12
2018-12-01T06:59:51.094Z,97.41
2018-12-01T07:01:43.778Z,97.60
2018-12-01T07:02:43.645Z,97.55
2018-12-01T07:04:36.303Z,96.93
2018-12-01T07:05:36.195Z,97.03
2018-12-01T07:07:28.872Z,97.45
2018-12-01T07:08:28.737Z,97.22
2018-12-01T07:10:21.405Z,97.31
2018-12-01T07:11:21.288Z,97.22
2018-12-01T07:13:13.968Z,97.12
2018-12-01T07:14:13.843Z,97.41
2018-12-01T07:16:06.521Z,97.55
2018-12-01T07:17:06.387Z,96.79
2018-12-01T07:18:59.048Z,97.22
2018-12-01T07:19:58.937Z,97.45
2018-12-01T07:21:51.614Z,96.74
2018-12-01T07:22:51.484Z,96.79
2018-12-01T07:24:44.149Z,96.65
2018-12-01T07:25:44.031Z,97.22
2018-12-01T07:27:36.716Z,97.27
2018-12-01T07:28:36.585Z,96.98
2018-12-01T07:30:29.249Z,97.27
2018-12-01T07:31:29.133Z,97.17
2018-12-01T07:33:21.814Z,96.98
2018-12-01T07:34:21.681Z,96.79
2018-12-01T07:36:14.359Z,97.31
2018-12-01T07:37:14.234Z,96.98
2018-12-01T07:39:06.892Z,97.08
2018-12-01T07:40:06.780Z,97.45
2018-12-01T07:41:59.457Z,96.79
2018-12-01T07:42:59.332Z,96.79
2018-12-01T07:44:51.993Z,97.27
2018-12-01T07:45:51.882Z,97.17
2018-12-01T07:47:44.558Z,97.27
2018-12-01T07:48:44.431Z,97.08
2018-12-01T07:50:37.095Z,96.60
2018-12-01T07:51:36.987Z,96.50
2018-12-01T07:53:29.663Z,96.60
2018-12-01T07:54:29.538Z,96.60
2018-12-01T07:56:22.198Z,96.50
2018-12-01T07:57:22.079Z,96.60
2018-12-01T07:59:14.761Z,96.60
2018-12-01T08:00:14.630Z,96.89
2018-12-01T08:02:07.310Z,96.79
2018-12-01T08:03:07.183Z,96.79
2018-12-01T08:04:59.844Z,96.22
2018-12-01T08:05:59.728Z,96.79
2018-12-01T08:07:52.407Z,96.12
2018-12-01T08:08:52.283Z,96.12
2018-12-01T08:10:44.946Z,96.31
2018-12-01T08:11:44.828Z,96.31
2018-12-01T08:13:37.513Z,96.03
2018-12-01T08:14:37.379Z,96.17
2018-12-01T08:16:30.044Z,95.89
2018-12-01T08:17:29.933Z,95.32
2018-12-01T08:19:22.609Z,95.79
2018-12-01T08:20:22.484Z,95.60
2018-12-01T08:22:15.158Z,95.70
2018-12-01T08:23:15.034Z,95.70
2018-12-01T08:25:07.698Z,95.98
2018-12-01T08:26:07.603Z,95.70
2018-12-01T08:28:00.267Z,95.70
2018-12-01T08:29:00.137Z,95.41
2018-12-01T08:30:52.806Z,95.22
2018-12-01T08:31:52.691Z,95.32
2018-12-01T08:33:45.371Z,95.79
2018-12-01T08:34:45.244Z,95.22
2018-12-01T08:36:37.906Z,95.51
2018-12-01T08:37:37.804Z,94.84
2018-12-01T08:39:30.482Z,95.51
2018-12-01T08:40:30.360Z,94.65
2018-12-01T08:42:23.019Z,95.60
2018-12-01T08:43:22.907Z,95.12
2018-12-01T08:45:15.589Z,94.56
2018-12-01T08:46:15.459Z,94.84
2018-12-01T08:48:08.146Z,94.84
2018-12-01T08:49:08.015Z,95.12
2018-12-01T08:51:00.681Z,94.74
2018-12-01T08:52:00.566Z,94.46
2018-12-01T08:53:53.254Z,94.56
2018-12-01T08:54:53.115Z,94.46
2018-12-01T08:56:45.776Z,94.60
2018-12-01T08:57:45.666Z,94.60
2018-12-01T08:59:38.359Z,93.94
2018-12-01T09:00:38.235Z,94.03
2018-12-01T09:02:30.899Z,94.42
2018-12-01T09:03:30.791Z,94.13
2018-12-01T09:05:23.468Z,93.46
2018-12-01T09:06:23.342Z,93.37
2018-12-01T09:08:16.008Z,94.03
2018-12-01T09:09:15.896Z,93.55
2018-12-01T09:11:08.575Z,93.65
2018-12-01T09:12:08.448Z,93.46
2018-12-01T09:14:01.116Z,93.89
2018-12-01T09:15:01.001Z,93.79
2018-12-01T09:16:53.682Z,93.37
2018-12-01T09:17:53.556Z,93.18
2018-12-01T09:19:46.237Z,93.94
2018-12-01T09:20:46.108Z,93.74
2018-12-01T09:22:38.769Z,93.08
2018-12-01T09:23:38.661Z,93.37
2018-12-01T09:25:31.342Z,93.65
2018-12-01T09:26:31.218Z,94.03
2018-12-01T09:28:23.882Z,93.79
2018-12-01T09:29:23.774Z,93.13
2018-12-01T09:31:16.453Z,93.22
2018-12-01T09:32:16.335Z,93.13
2018-12-01T09:34:08.986Z,93.08
2018-12-01T09:35:08.877Z,93.27
2018-12-01T09:37:01.565Z,93.18
2018-12-01T09:38:01.437Z,93.27
2018-12-01T09:39:54.131Z,93.74
2018-12-01T09:40:54.007Z,93.55
2018-12-01T09:42:46.665Z,93.55
2018-12-01T09:43:46.559Z,93.84
2018-12-01T09:45:39.235Z,93.84
2018-12-01T09:46:39.112Z,93.94
2018-12-01T09:48:31.775Z,93.46
2018-12-01T09:49:31.661Z,93.74
2018-12-01T09:51:24.345Z,93.55
2018-12-01T09:52:24.215Z,93.37
2018-12-01T09:54:16.881Z,93.37
2018-12-01T09:55:16.767Z,93.65
2018-12-01T09:57:09.450Z,93.18
2018-12-01T09:58:09.323Z,93.65
2018-12-01T10:00:01.988Z,93.84
2018-12-01T10:01:02.713Z,93.84
2018-12-01T10:02:54.565Z,93.84
2018-12-01T10:03:54.439Z,93.84
2018-12-01T10:05:47.120Z,93.08
2018-12-01T10:06:46.990Z,93.18
2018-12-01T10:08:39.657Z,92.51
2018-12-01T10:09:39.543Z,93.08
2018-12-01T10:11:32.232Z,93.18
2018-12-01T10:12:32.098Z,93.08
2018-12-01T10:14:24.764Z,92.89
2018-12-01T10:15:24.651Z,93.18
2018-12-01T10:17:17.327Z,92.70
2018-12-01T10:18:17.204Z,93.08
2018-12-01T10:20:09.862Z,92.51
2018-12-01T10:21:09.759Z,92.99
2018-12-01T10:23:02.439Z,93.08
2018-12-01T10:24:02.306Z,93.27
2018-12-01T10:25:54.989Z,92.55
2018-12-01T10:26:54.865Z,93.32
2018-12-01T10:28:47.528Z,93.03
2018-12-01T10:29:47.417Z,92.55
2018-12-01T10:31:40.102Z,92.55
2018-12-01T10:32:40.011Z,92.55
2018-12-01T10:34:32.636Z,91.89
2018-12-01T10:35:32.526Z,92.27
2018-12-01T10:37:25.203Z,91.99
2018-12-01T10:38:25.080Z,91.79
2018-12-01T10:40:17.748Z,92.46
2018-12-01T10:41:17.632Z,92.27
2018-12-01T10:43:10.313Z,92.27
2018-12-01T10:44:10.184Z,92.27
2018-12-01T10:46:02.926Z,92.27
2018-12-01T10:47:02.742Z,92.18
2018-12-01T10:48:55.398Z,92.27
2018-12-01T10:49:55.286Z,92.74
2018-12-01T10:51:48.008Z,92.55
2018-12-01T10:52:47.846Z,92.18
2018-12-01T10:54:40.502Z,92.27
2018-12-01T10:55:40.390Z,92.74
2018-12-01T10:57:33.078Z,91.99
2018-12-01T10:58:32.954Z,91.70
2018-12-01T11:00:25.622Z,91.89
2018-12-01T11:01:25.508Z,91.55
2018-12-01T11:03:18.183Z,91.31
2018-12-01T11:04:18.058Z,91.36
2018-12-01T11:06:10.724Z,91.55
2018-12-01T11:07:10.612Z,90.98
2018-12-01T11:09:03.294Z,91.36
2018-12-01T11:10:03.166Z,90.89
2018-12-01T11:11:55.845Z,90.70
2018-12-01T11:12:55.715Z,90.79
2018-12-01T11:14:48.378Z,90.70
2018-12-01T11:15:48.275Z,90.79
2018-12-01T11:17:40.955Z,90.60
2018-12-01T11:18:40.826Z,90.94
2018-12-01T11:20:33.494Z,90.89
2018-12-01T11:21:33.377Z,90.70
2018-12-01T11:23:26.064Z,90.70
2018-12-01T11:24:25.939Z,90.31
2018-12-01T11:26:18.603Z,90.41
2018-12-01T11:27:18.492Z,90.03
2018-12-01T11:29:11.175Z,90.12
2018-12-01T11:30:11.053Z,90.12
2018-12-01T11:32:03.735Z,89.55
2018-12-01T11:33:03.600Z,89.26
2018-12-01T11:34:56.269Z,89.36
2018-12-01T11:35:56.160Z,89.46
2018-12-01T11:37:48.849Z,88.41
2018-12-01T11:38:48.723Z,88.98
2018-12-01T11:40:41.384Z,88.89
2018-12-01T11:41:41.278Z,88.79
2018-12-01T11:43:33.954Z,88.79
2018-12-01T11:44:33.833Z,89.17
2018-12-01T11:46:26.505Z,88.41
2018-12-01T11:47:26.397Z,88.98
2018-12-01T11:49:19.078Z,87.93
2018-12-01T11:50:18.952Z,88.51
2018-12-01T11:52:11.627Z,88.17
2018-12-01T11:53:11.516Z,88.70
2018-12-01T11:55:04.196Z,88.26
2018-12-01T11:56:04.069Z,88.26
2018-12-01T11:57:56.744Z,87.84
2018-12-01T11:58:56.621Z,88.03
2018-12-01T12:00:49.450Z,87.84
2018-12-01T12:01:49.185Z,88.03
2018-12-01T12:03:41.881Z,88.22
2018-12-01T12:04:41.757Z,88.41
2018-12-01T12:06:34.422Z,88.98
2018-12-01T12:07:34.317Z,88.89
2018-12-01T12:09:27.003Z,88.98
2018-12-01T12:10:26.879Z,88.89
2018-12-01T12:12:19.540Z,88.70
2018-12-01T12:13:19.432Z,88.89
2018-12-01T12:15:12.112Z,88.79
2018-12-01T12:16:11.983Z,88.51
2018-12-01T12:18:04.667Z,88.60
2018-12-01T12:19:04.539Z,89.07
2018-12-01T12:20:57.206Z,88.60
2018-12-01T12:21:57.090Z,88.89
2018-12-01T12:23:49.779Z,88.98
2018-12-01T12:24:49.652Z,88.98
2018-12-01T12:26:42.322Z,88.31
2018-12-01T12:27:42.203Z,88.31
2018-12-01T12:29:34.889Z,88.03
2018-12-01T12:30:34.764Z,88.22
2018-12-01T12:32:27.436Z,87.74
2018-12-01T12:33:27.317Z,88.22
2018-12-01T12:35:20.001Z,87.84
2018-12-01T12:36:19.879Z,87.27
2018-12-01T12:38:12.565Z,87.36
2018-12-01T12:39:12.432Z,87.36
2018-12-01T12:41:05.094Z,88.12
2018-12-01T12:42:04.981Z,88.12
2018-12-01T12:43:57.667Z,87.17
2018-12-01T12:44:57.534Z,87.36
2018-12-01T12:46:50.202Z,87.36
2018-12-01T12:47:50.101Z,87.36
2018-12-01T12:49:42.772Z,87.17
2018-12-01T12:50:42.661Z,87.17
2018-12-01T12:52:35.314Z,87.93
2018-12-01T12:53:35.207Z,87.55
2018-12-01T12:55:27.886Z,87.46
2018-12-01T12:56:27.760Z,87.55
2018-12-01T12:58:20.427Z,87.17
2018-12-01T12:59:20.315Z,86.98
2018-12-01T13:01:12.995Z,87.17
2018-12-01T13:02:12.870Z,87.17
2018-12-01T13:04:05.547Z,87.07
2018-12-01T13:05:05.430Z,86.88
2018-12-01T13:06:58.089Z,86.69
2018-12-01T13:07:57.976Z,86.32
2018-12-01T13:09:50.659Z,86.60
2018-12-01T13:10:50.528Z,86.51
2018-12-01T13:12:43.196Z,86.45
2018-12-01T13:13:43.086Z,86.60
2018-12-01T13:15:35.765Z,86.03
2018-12-01T13:16:35.639Z,86.32
2018-12-01T13:18:28.307Z,86.79
2018-12-01T13:19:28.189Z,86.32
2018-12-01T13:21:21.367Z,86.03
2018-12-01T13:22:21.249Z,85.93
2018-12-01T13:24:13.919Z,86.32
2018-12-01T13:25:13.799Z,85.88
2018-12-01T13:27:06.460Z,86.07
2018-12-01T13:28:06.352Z,86.07
2018-12-01T13:29:59.040Z,85.46
2018-12-01T13:30:58.918Z,85.41
2018-12-01T13:32:51.581Z,85.55
2018-12-01T13:33:51.473Z,86.12
2018-12-01T13:35:44.152Z,85.46
2018-12-01T13:36:44.030Z,85.46
2018-12-01T13:38:36.697Z,85.64
2018-12-01T13:39:36.579Z,85.74
2018-12-01T13:41:29.266Z,85.08
2018-12-01T13:42:29.135Z,85.84
2018-12-01T13:44:21.816Z,86.03
2018-12-01T13:45:21.688Z,85.46
2018-12-01T13:47:14.360Z,85.74
2018-12-01T13:48:14.241Z,86.22
2018-12-01T13:50:06.968Z,85.64
2018-12-01T13:51:06.841Z,85.08
2018-12-01T13:52:59.504Z,85.08
2018-12-01T13:53:59.393Z,85.08
2018-12-01T13:55:52.078Z,84.92
2018-12-01T13:56:51.953Z,84.55
2018-12-01T13:58:44.613Z,85.21
2018-12-01T13:59:44.501Z,85.41
2018-12-01T14:01:37.189Z,84.16
2018-12-01T14:02:37.071Z,84.74
2018-12-01T14:04:29.743Z,84.74
2018-12-01T14:05:29.614Z,84.55
2018-12-01T14:07:22.282Z,84.36
2018-12-01T14:08:22.167Z,85.41
2018-12-01T14:10:14.856Z,85.41
2018-12-01T14:11:14.728Z,85.31
2018-12-01T14:13:07.728Z,85.31
2018-12-01T14:14:07.284Z,85.41
2018-12-01T14:15:59.982Z,84.83
2018-12-01T14:16:59.850Z,85.17
2018-12-01T14:18:52.514Z,85.27
2018-12-01T14:19:52.399Z,85.31
2018-12-01T14:21:45.078Z,85.27
2018-12-01T14:22:44.954Z,84.88
2018-12-01T14:24:37.646Z,85.08
2018-12-01T14:25:37.503Z,85.08
2018-12-01T14:27:30.172Z,84.98
2018-12-01T14:28:30.068Z,85.27
2018-12-01T14:30:22.747Z,84.92
2018-12-01T14:31:22.619Z,84.88
2018-12-01T14:33:16.361Z,85.31
2018-12-01T14:34:15.173Z,85.08
2018-12-01T14:36:07.855Z,85.08
2018-12-01T14:37:07.735Z,85.27
2018-12-01T14:39:00.409Z,85.64
2018-12-01T14:40:00.289Z,85.55
2018-12-01T14:41:52.975Z,85.46
2018-12-01T14:42:52.854Z,85.55
2018-12-01T14:44:45.512Z,85.17
2018-12-01T14:45:45.406Z,85.74
2018-12-01T14:47:38.087Z,85.36
2018-12-01T14:48:37.960Z,85.55
2018-12-01T14:50:30.637Z,85.74
2018-12-01T14:51:30.506Z,85.64
2018-12-01T14:53:23.178Z,85.74
2018-12-01T14:54:23.067Z,85.46
2018-12-01T14:56:15.881Z,85.84
2018-12-01T14:57:16.370Z,85.46
2018-12-01T14:59:08.426Z,86.03
2018-12-01T15:00:08.310Z,86.32
2018-12-01T15:02:00.985Z,86.12
2018-12-01T15:03:00.858Z,86.03
2018-12-01T15:04:53.523Z,86.32
2018-12-01T15:05:53.419Z,85.93
2018-12-01T15:07:46.103Z,86.32
2018-12-01T15:08:45.969Z,86.12
2018-12-01T15:10:38.664Z,86.69
2018-12-01T15:11:38.531Z,86.22
2018-12-01T15:13:31.203Z,86.12
2018-12-01T15:14:31.087Z,85.93
2018-12-01T15:16:23.772Z,86.60
2018-12-01T15:17:23.644Z,85.93
2018-12-01T15:19:16.303Z,86.32
2018-12-01T15:20:16.191Z,86.41
2018-12-01T15:22:08.876Z,86.69
2018-12-01T15:23:08.750Z,86.69
2018-12-01T15:25:01.414Z,86.69
2018-12-01T15:26:01.304Z,86.69
2018-12-01T15:27:53.992Z,86.79
2018-12-01T15:28:53.858Z,87.17
2018-12-01T15:30:46.546Z,86.65
2018-12-01T15:31:46.414Z,86.84
2018-12-01T15:33:39.092Z,87.32
2018-12-01T15:34:38.981Z,86.94
2018-12-01T15:36:31.666Z,87.23
2018-12-01T15:37:31.537Z,87.23
2018-12-01T15:39:24.202Z,87.32
2018-12-01T15:40:24.090Z,87.32
2018-12-01T15:42:16.775Z,87.41
2018-12-01T15:43:17.121Z,87.32
2018-12-01T15:45:09.310Z,87.51
2018-12-01T15:46:09.192Z,87.70
2018-12-01T15:48:01.881Z,87.23
2018-12-01T15:49:01.754Z,87.41
2018-12-01T15:50:54.421Z,87.32
2018-12-01T15:51:54.315Z,87.23
2018-12-01T15:53:46.995Z,87.32
2018-12-01T15:54:46.878Z,87.13
2018-12-01T15:56:39.542Z,87.70
2018-12-01T15:57:39.417Z,87.51
2018-12-01T15:59:32.084Z,86.75
2018-12-01T16:00:31.979Z,87.13
2018-12-01T16:02:24.653Z,86.94
2018-12-01T16:03:24.529Z,87.03
2018-12-01T16:05:17.193Z,87.07
2018-12-01T16:06:17.081Z,86.88
2018-12-01T16:08:09.760Z,86.88
2018-12-01T16:09:09.635Z,86.36
2018-12-01T16:11:02.304Z,86.32
2018-12-01T16:12:02.198Z,86.51
2018-12-01T16:13:54.875Z,86.41
2018-12-01T16:14:54.751Z,85.93
2018-12-01T16:16:47.439Z,86.12
2018-12-01T16:17:47.302Z,85.55
2018-12-01T16:19:39.965Z,85.74
2018-12-01T16:20:39.855Z,85.46
2018-12-01T16:22:32.533Z,85.74
2018-12-01T16:23:32.406Z,85.64
2018-12-01T16:25:25.078Z,85.08
2018-12-01T16:26:24.969Z,85.08
2018-12-01T16:28:17.647Z,85.08
2018-12-01T16:29:17.520Z,84.88
2018-12-01T16:31:10.199Z,85.08
2018-12-01T16:32:10.080Z,85.17
2018-12-01T16:34:02.763Z,85.08
2018-12-01T16:35:02.636Z,84.79
2018-12-01T16:36:55.314Z,84.69
2018-12-01T16:37:55.187Z,84.22
2018-12-01T16:39:47.855Z,84.50
2018-12-01T16:40:47.919Z,84.12
2018-12-01T16:42:40.546Z,84.12
2018-12-01T16:43:40.330Z,84.22
2018-12-01T16:45:33.038Z,84.31
2018-12-01T16:46:32.898Z,84.60
2018-12-01T16:48:25.582Z,84.69
2018-12-01T16:49:25.465Z,84.50
2018-12-01T16:51:18.117Z,84.41
2018-12-01T16:52:18.007Z,84.31
2018-12-01T16:54:10.768Z,84.31
2018-12-01T16:55:11.592Z,84.22
2018-12-01T16:57:03.367Z,84.41
2018-12-01T16:58:03.254Z,84.88
2018-12-01T16:59:55.910Z,84.69
2018-12-01T17:00:55.797Z,85.27
2018-12-01T17:02:48.473Z,84.41
2018-12-01T17:03:48.345Z,85.36
2018-12-01T17:05:41.014Z,84.98
2018-12-01T17:06:40.901Z,85.08
2018-12-01T17:08:33.583Z,84.50
2018-12-01T17:09:33.451Z,85.27
2018-12-01T17:11:26.124Z,85.27
2018-12-01T17:12:26.012Z,85.08
2018-12-01T17:14:18.690Z,84.98
2018-12-01T17:15:18.564Z,85.36
2018-12-01T17:17:11.265Z,85.17
2018-12-01T17:18:11.139Z,85.51
2018-12-01T17:20:03.804Z,85.55
2018-12-01T17:21:03.694Z,86.08
2018-12-01T17:22:56.370Z,85.99
2018-12-01T17:23:56.249Z,86.12
2018-12-01T17:25:48.908Z,85.93
2018-12-01T17:26:48.799Z,86.27
2018-12-01T17:28:41.477Z,86.65
2018-12-01T17:29:41.355Z,85.99
2018-12-01T17:31:34.014Z,86.18
2018-12-01T17:32:33.907Z,86.32
2018-12-01T17:34:26.581Z,85.70
2018-12-01T17:35:26.454Z,86.32
2018-12-01T17:37:19.123Z,86.12
2018-12-01T17:38:19.006Z,85.99
2018-12-01T17:40:11.694Z,86.22
2018-12-01T17:41:11.560Z,85.99
2018-12-01T17:43:04.234Z,85.84
2018-12-01T17:44:04.123Z,86.18
2018-12-01T17:45:56.805Z,86.18
2018-12-01T17:46:56.670Z,85.74
2018-12-01T17:48:49.338Z,86.75
2018-12-01T17:49:49.224Z,86.60
2018-12-01T17:51:41.903Z,86.55
2018-12-01T17:52:41.773Z,86.69
2018-12-01T17:54:34.439Z,86.55
2018-12-01T17:55:34.322Z,86.46
2018-12-01T17:57:27.005Z,87.41
2018-12-01T17:58:26.877Z,86.94
2018-12-01T18:00:19.539Z,87.23
2018-12-01T18:01:19.431Z,87.41
2018-12-01T18:03:12.113Z,87.70
2018-12-01T18:04:11.981Z,87.41
2018-12-01T18:06:04.642Z,87.32
2018-12-01T18:07:04.528Z,87.60
2018-12-01T18:08:57.211Z,87.60
2018-12-01T18:09:57.087Z,87.51
2018-12-01T18:11:49.754Z,87.60
2018-12-01T18:12:49.642Z,87.51
2018-12-01T18:14:42.324Z,87.60
2018-12-01T18:15:42.198Z,87.41
2018-12-01T18:17:34.862Z,87.98
2018-12-01T18:18:34.752Z,87.98
2018-12-01T18:20:27.431Z,87.98
2018-12-01T18:21:27.302Z,88.37
2018-12-01T18:23:19.960Z,87.79
2018-12-01T18:24:19.856Z,87.89
2018-12-01T18:26:12.533Z,88.65
2018-12-01T18:27:12.403Z,88.27
2018-12-01T18:29:05.071Z,88.93
2018-12-01T18:30:04.965Z,88.84
2018-12-01T18:31:57.637Z,88.93
2018-12-01T18:32:57.513Z,88.37
2018-12-01T18:34:50.195Z,88.65
2018-12-01T18:35:50.062Z,89.03
2018-12-01T18:37:42.731Z,88.65
2018-12-01T18:38:42.620Z,89.13
2018-12-01T18:40:35.301Z,88.93
2018-12-01T18:41:35.169Z,89.13
2018-12-01T18:43:27.837Z,89.89
2018-12-01T18:44:27.729Z,90.08
2018-12-01T18:46:20.411Z,90.17
2018-12-01T18:47:20.281Z,89.32
2018-12-01T18:49:12.951Z,89.98
2018-12-01T18:50:12.832Z,90.17
2018-12-01T18:52:05.515Z,90.27
2018-12-01T18:53:05.389Z,90.36
2018-12-01T18:54:58.070Z,89.70
2018-12-01T18:55:57.941Z,90.27
2018-12-01T18:57:50.603Z,90.08
2018-12-01T18:58:50.494Z,90.27
2018-12-01T19:00:43.182Z,89.98
2018-12-01T19:01:43.046Z,90.17
2018-12-01T19:03:35.707Z,90.46
2018-12-01T19:04:35.598Z,90.46
2018-12-01T19:06:28.281Z,90.46
2018-12-01T19:07:28.148Z,90.46
2018-12-01T19:09:20.807Z,91.03
2018-12-01T19:10:20.697Z,90.36
2018-12-01T19:12:13.381Z,91.03
2018-12-01T19:13:13.248Z,90.75
2018-12-01T19:15:05.916Z,90.84
2018-12-01T19:16:05.803Z,90.46
2018-12-01T19:17:58.499Z,90.27
2018-12-01T19:18:58.375Z,90.36
2018-12-01T19:20:51.061Z,90.27
2018-12-01T19:21:50.933Z,90.46
2018-12-01T19:23:43.593Z,90.36
2018-12-01T19:24:43.488Z,90.46
2018-12-01T19:26:36.253Z,90.56
2018-12-01T19:27:36.124Z,90.94
2018-12-01T19:29:28.813Z,91.22
2018-12-01T19:30:28.704Z,90.65
2018-12-01T19:32:21.387Z,91.41
2018-12-01T19:33:21.257Z,91.13
2018-12-01T19:35:13.924Z,91.31
2018-12-01T19:36:13.817Z,91.22
2018-12-01T19:38:06.489Z,91.22
2018-12-01T19:39:06.364Z,91.13
2018-12-01T19:40:59.042Z,91.31
2018-12-01T19:41:58.920Z,91.70
2018-12-01T19:43:51.584Z,91.31
2018-12-01T19:44:51.468Z,91.51
2018-12-01T19:46:44.153Z,91.22
2018-12-01T19:47:44.025Z,91.51
2018-12-01T19:49:36.695Z,91.31
2018-12-01T19:50:36.585Z,91.31
2018-12-01T19:52:29.259Z,91.03
2018-12-01T19:53:29.138Z,90.65
2018-12-01T19:55:21.800Z,90.65
2018-12-01T19:56:21.690Z,90.84
2018-12-01T19:58:14.388Z,91.03
2018-12-01T19:59:14.246Z,90.75
2018-12-01T20:01:06.926Z,90.94
2018-12-01T20:02:06.797Z,91.03
2018-12-01T20:03:59.463Z,90.84
2018-12-01T20:04:59.349Z,90.36
2018-12-01T20:06:52.036Z,90.36
2018-12-01T20:07:51.911Z,90.08
2018-12-01T20:09:44.570Z,90.56
2018-12-01T20:10:44.455Z,90.08
2018-12-01T20:12:37.142Z,89.98
2018-12-01T20:13:37.007Z,90.17
2018-12-01T20:15:29.673Z,90.17
2018-12-01T20:16:29.560Z,90.08
2018-12-01T20:18:22.741Z,90.36
2018-12-01T20:19:22.610Z,89.89
2018-12-01T20:21:15.272Z,90.27
2018-12-01T20:22:15.173Z,90.27
2018-12-01T20:24:07.839Z,90.65
2018-12-01T20:25:07.719Z,90.94
2018-12-01T20:27:00.395Z,90.84
2018-12-01T20:28:00.268Z,91.13
2018-12-01T20:29:52.939Z,90.65
2018-12-01T20:30:52.830Z,90.65
2018-12-01T20:32:45.503Z,90.75
2018-12-01T20:33:45.379Z,90.65
2018-12-01T20:35:38.542Z,91.03
2018-12-01T20:36:38.436Z,91.22
2018-12-01T20:38:31.117Z,91.89
2018-12-01T20:39:30.994Z,91.79
2018-12-01T20:41:23.676Z,91.99
2018-12-01T20:42:23.551Z,91.89
2018-12-01T20:44:16.223Z,92.55
2018-12-01T20:45:16.095Z,92.27
2018-12-01T20:47:08.783Z,92.55
2018-12-01T20:48:08.648Z,92.84
2018-12-01T20:50:01.307Z,92.94
2018-12-01T20:51:01.193Z,93.41
2018-12-01T20:52:53.877Z,93.51
2018-12-01T20:53:53.748Z,93.51
2018-12-01T20:55:46.410Z,93.51
2018-12-01T20:56:46.298Z,93.51
2018-12-01T20:58:38.980Z,93.89
2018-12-01T20:59:38.850Z,93.32
2018-12-01T21:01:31.517Z,93.22
2018-12-01T21:02:31.423Z,92.94
2018-12-01T21:04:24.099Z,92.65
2018-12-01T21:05:23.969Z,93.32
2018-12-01T21:07:16.660Z,92.84
2018-12-01T21:08:16.522Z,92.84
2018-12-01T21:10:09.221Z,92.74
2018-12-01T21:11:09.164Z,92.94
2018-12-01T21:13:01.759Z,92.55
2018-12-01T21:14:01.631Z,92.46
2018-12-01T21:15:54.304Z,92.27
2018-12-01T21:16:54.190Z,92.27
2018-12-01T21:18:46.869Z,92.27
2018-12-01T21:19:46.742Z,92.36
2018-12-01T21:21:39.408Z,91.89
2018-12-01T21:22:39.291Z,92.74
2018-12-01T21:24:31.991Z,92.18
2018-12-01T21:25:31.859Z,92.27
2018-12-01T21:27:24.530Z,92.94
2018-12-01T21:28:24.416Z,92.55
2018-12-01T21:30:17.105Z,92.84
2018-12-01T21:31:16.974Z,92.55
2018-12-01T21:33:09.659Z,92.84
2018-12-01T21:34:09.530Z,93.03
2018-12-01T21:36:02.257Z,92.94
2018-12-01T21:37:02.144Z,92.94
2018-12-01T21:38:55.004Z,93.41
2018-12-01T21:39:54.914Z,93.60
2018-12-01T21:41:47.382Z,93.51
2018-12-01T21:42:47.273Z,93.41
2018-12-01T21:44:39.952Z,93.41
2018-12-01T21:45:39.823Z,93.70
2018-12-01T21:47:32.493Z,92.94
2018-12-01T21:48:32.387Z,93.41
2018-12-01T21:50:25.181Z,92.55
2018-12-01T21:51:24.941Z,92.74
2018-12-01T21:53:17.620Z,93.32
2018-12-01T21:54:17.494Z,93.22
2018-12-01T21:56:10.161Z,92.94
2018-12-01T21:57:10.045Z,92.74
2018-12-01T21:59:02.726Z,92.74
2018-12-01T22:00:02.598Z,92.55
2018-12-01T22:01:55.267Z,92.84
2018-12-01T22:02:55.152Z,92.46
2018-12-01T22:04:47.846Z,91.99
2018-12-01T22:05:47.722Z,92.55
2018-12-01T22:07:40.481Z,92.46
2018-12-01T22:08:40.371Z,92.18
2018-12-01T22:10:33.048Z,91.99
2018-12-01T22:11:32.945Z,92.08
2018-12-01T22:13:25.641Z,92.46
2018-12-01T22:14:25.476Z,91.79
2018-12-01T22:16:18.144Z,92.46
2018-12-01T22:17:18.154Z,91.99
2018-12-01T22:19:10.714Z,91.79
2018-12-01T22:20:10.589Z,91.70
2018-12-01T22:22:03.251Z,92.18
2018-12-01T22:23:03.141Z,91.99
2018-12-01T22:24:55.925Z,91.89
2018-12-01T22:25:55.799Z,92.36
2018-12-01T22:27:48.572Z,91.70
2018-12-01T22:28:48.348Z,91.70
2018-12-01T22:30:41.037Z,91.70
2018-12-01T22:31:40.905Z,91.99
2018-12-01T22:33:33.603Z,91.89
2018-12-01T22:34:33.476Z,91.89
2018-12-01T22:36:26.143Z,91.89
2018-12-01T22:37:26.034Z,91.79
2018-12-01T22:39:18.715Z,91.70
2018-12-01T22:40:18.587Z,91.89
2018-12-01T22:42:11.270Z,91.99
2018-12-01T22:43:11.134Z,91.89
2018-12-01T22:45:03.825Z,91.51
2018-12-01T22:46:03.698Z,91.79
2018-12-01T22:47:56.398Z,91.79
2018-12-01T22:48:56.286Z,91.99
2018-12-01T22:50:48.970Z,91.89
2018-12-01T22:51:48.844Z,91.89
2018-12-01T22:53:41.507Z,91.79
2018-12-01T22:54:41.396Z,91.79
2018-12-01T22:56:34.077Z,91.89
2018-12-01T22:57:33.949Z,91.60
2018-12-01T22:59:26.627Z,92.18
